createdAt,value
2023-02-15T00:00:42.721Z,-0.72
2023-02-15T00:03:11.613Z,-0.80
2023-02-15T00:05:39.663Z,-0.53
2023-02-15T00:08:08.417Z,-0.52
2023-02-15T00:10:36.932Z,-0.31
2023-02-15T00:13:04.980Z,-0.25
2023-02-15T00:15:33.219Z,-0.37
2023-02-15T00:18:02.381Z,-0.50
2023-02-15T00:20:30.621Z,-0.41
2023-02-15T00:22:59.673Z,-0.43
2023-02-15T00:25:28.139Z,-0.51
2023-02-15T00:27:56.233Z,-0.42
2023-02-15T00:30:24.700Z,-0.44
2023-02-15T00:32:53.313Z,-0.48
2023-02-15T00:35:21.447Z,-0.54
2023-02-15T00:37:50.103Z,-0.66
2023-02-15T00:40:18.655Z,-0.58
2023-02-15T00:42:46.715Z,-0.52
2023-02-15T00:45:17.439Z,-0.53
2023-02-15T00:47:47.011Z,-0.65
2023-02-15T00:50:15.227Z,-1.00
2023-02-15T00:52:43.316Z,-1.08
2023-02-15T00:55:11.842Z,-0.95
2023-02-15T00:57:39.881Z,-0.87
2023-02-15T01:00:08.490Z,-0.96
2023-02-15T01:02:38.038Z,-0.95
2023-02-15T01:05:07.003Z,-0.94
2023-02-15T01:07:35.213Z,-0.75
2023-02-15T01:10:03.998Z,-0.71
2023-02-15T01:12:35.050Z,-0.73
2023-02-15T01:15:03.999Z,-0.71
2023-02-15T01:17:32.591Z,-0.72
2023-02-15T01:20:00.745Z,-0.84
2023-02-15T01:22:29.247Z,-0.84
2023-02-15T01:24:57.440Z,-0.78
2023-02-15T01:27:25.561Z,-0.74
2023-02-15T01:29:54.245Z,-0.70
2023-02-15T01:32:24.326Z,-0.79
2023-02-15T01:34:52.458Z,-0.86
2023-02-15T01:37:21.637Z,-0.95
2023-02-15T01:39:50.061Z,-0.86
2023-02-15T01:42:24.714Z,-0.88
2023-02-15T01:45:25.066Z,-0.76
2023-02-15T01:48:23.726Z,-0.66
2023-02-15T01:51:02.873Z,-0.84
2023-02-15T01:53:41.509Z,-0.99
2023-02-15T01:56:17.873Z,-1.04
2023-02-15T01:58:48.678Z,-0.98
2023-02-15T02:01:19.831Z,-1.16
2023-02-15T02:04:19.809Z,-1.19
2023-02-15T02:06:50.187Z,-1.10
2023-02-15T02:09:18.837Z,-1.32
2023-02-15T02:11:49.279Z,-1.25
2023-02-15T02:14:18.756Z,-1.16
2023-02-15T02:17:16.954Z,-1.26
2023-02-15T02:20:07.161Z,-1.09
2023-02-15T02:23:00.560Z,-1.06
2023-02-15T02:25:44.736Z,-1.03
2023-02-15T02:28:40.187Z,-0.99
2023-02-15T02:31:26.514Z,-1.14
2023-02-15T02:34:16.956Z,-1.27
2023-02-15T02:37:21.001Z,-1.26
2023-02-15T02:39:52.020Z,-1.28
2023-02-15T02:42:36.334Z,-1.31
2023-02-15T02:45:12.779Z,-1.36
2023-02-15T02:47:50.600Z,-1.37
2023-02-15T02:50:23.656Z,-1.34
2023-02-15T02:52:55.063Z,-1.52
2023-02-15T02:55:53.134Z,-1.57
2023-02-15T02:58:51.874Z,-1.37
2023-02-15T03:01:31.644Z,-1.38
2023-02-15T03:04:11.767Z,-1.37
2023-02-15T03:07:04.473Z,-1.51
2023-02-15T03:09:44.131Z,-1.54
2023-02-15T03:12:22.596Z,-1.59
2023-02-15T03:15:05.336Z,-1.65
2023-02-15T03:17:38.063Z,-1.78
2023-02-15T03:20:35.493Z,-1.98
2023-02-15T03:23:17.858Z,-2.05
2023-02-15T03:26:02.987Z,-2.04
2023-02-15T03:28:38.553Z,-1.82
2023-02-15T03:31:08.475Z,-1.72
2023-02-15T03:33:43.256Z,-1.58
2023-02-15T03:36:20.267Z,-1.75
2023-02-15T03:39:00.825Z,-1.69
2023-02-15T03:41:38.316Z,-1.72
2023-02-15T03:44:15.110Z,-1.68
2023-02-15T03:46:57.291Z,-1.67
2023-02-15T03:49:32.040Z,-1.63
2023-02-15T03:52:03.520Z,-1.59
2023-02-15T03:54:44.049Z,-1.59
2023-02-15T03:57:43.610Z,-1.42
2023-02-15T04:00:33.242Z,-1.35
2023-02-15T04:03:24.972Z,-1.33
2023-02-15T04:05:53.386Z,-1.48
2023-02-15T04:08:41.937Z,-1.51
2023-02-15T04:11:10.057Z,-1.51
2023-02-15T04:13:38.670Z,-1.47
2023-02-15T04:16:08.166Z,-1.45
2023-02-15T04:19:02.069Z,-1.53
2023-02-15T04:21:50.694Z,-1.48
2023-02-15T04:24:38.407Z,-1.65
2023-02-15T04:27:07.396Z,-1.60
2023-02-15T04:29:35.833Z,-1.64
2023-02-15T04:32:04.335Z,-1.76
2023-02-15T04:34:32.934Z,-1.69
2023-02-15T04:37:01.328Z,-1.62
2023-02-15T04:39:29.506Z,-1.65
2023-02-15T04:41:58.163Z,-1.65
2023-02-15T04:44:26.407Z,-1.67
2023-02-15T04:46:54.526Z,-1.76
2023-02-15T04:49:23.402Z,-1.73
2023-02-15T04:51:51.870Z,-1.78
2023-02-15T04:54:20.038Z,-1.71
2023-02-15T04:56:48.695Z,-1.62
2023-02-15T04:59:17.244Z,-1.63
2023-02-15T05:01:45.712Z,-1.68
2023-02-15T05:04:14.372Z,-1.63
2023-02-15T05:06:44.484Z,-1.60
2023-02-15T05:09:13.381Z,-1.73
2023-02-15T05:11:41.919Z,-1.73
2023-02-15T05:14:10.368Z,-1.83
2023-02-15T05:16:38.689Z,-1.86
2023-02-15T05:19:07.423Z,-1.89
2023-02-15T05:21:36.210Z,-2.14
2023-02-15T05:24:24.736Z,-1.90
2023-02-15T05:27:11.824Z,-1.81
2023-02-15T05:29:40.049Z,-1.83
2023-02-15T05:32:09.431Z,-1.83
2023-02-15T05:34:37.522Z,-1.86
2023-02-15T05:37:05.743Z,-1.88
2023-02-15T05:39:34.472Z,-1.88
2023-02-15T05:42:02.815Z,-1.93
2023-02-15T05:44:31.144Z,-1.99
2023-02-15T05:46:59.719Z,-1.98
2023-02-15T05:49:28.162Z,-1.95
2023-02-15T05:51:56.524Z,-1.95
2023-02-15T05:54:25.128Z,-1.93
2023-02-15T05:56:53.254Z,-2.00
2023-02-15T05:59:21.603Z,-2.07
2023-02-15T06:01:50.171Z,-2.13
2023-02-15T06:04:18.531Z,-2.02
2023-02-15T06:06:46.712Z,-1.99
2023-02-15T06:09:15.520Z,-1.95
2023-02-15T06:11:44.144Z,-1.93
2023-02-15T06:14:12.433Z,-1.97
2023-02-15T06:16:40.724Z,-1.99
2023-02-15T06:19:09.265Z,-2.02
2023-02-15T06:21:37.442Z,-2.00
2023-02-15T06:24:05.734Z,-2.02
2023-02-15T06:26:34.204Z,-2.05
2023-02-15T06:29:02.720Z,-1.96
2023-02-15T06:31:31.006Z,-1.99
2023-02-15T06:34:02.187Z,-1.91
2023-02-15T06:36:31.435Z,-1.62
2023-02-15T06:39:00.109Z,-1.41
2023-02-15T06:41:28.255Z,-1.35
2023-02-15T06:43:56.513Z,-0.96
2023-02-15T06:46:25.167Z,-0.61
2023-02-15T06:48:53.327Z,-0.49
2023-02-15T06:51:21.985Z,-0.62
2023-02-15T06:53:50.498Z,-0.28
2023-02-15T06:56:18.540Z,-0.19
2023-02-15T06:58:47.324Z,-0.45
2023-02-15T07:01:16.517Z,-0.47
2023-02-15T07:03:44.757Z,-0.43
2023-02-15T07:06:13.056Z,-0.53
2023-02-15T07:08:42.058Z,-0.73
2023-02-15T07:11:28.914Z,-0.66
2023-02-15T07:13:57.802Z,-0.87
2023-02-15T07:16:25.939Z,-0.76
2023-02-15T07:18:54.380Z,-0.45
2023-02-15T07:21:23.754Z,-0.25
2023-02-15T07:23:51.901Z,-0.27
2023-02-15T07:26:20.147Z,-0.18
2023-02-15T07:28:48.991Z,-0.13
2023-02-15T07:31:17.331Z,0.02
2023-02-15T07:33:45.633Z,0.09
2023-02-15T07:36:14.011Z,0.31
2023-02-15T07:38:43.530Z,0.30
2023-02-15T07:41:14.801Z,0.25
2023-02-15T07:43:45.062Z,0.45
2023-02-15T07:46:16.593Z,0.61
2023-02-15T07:48:45.794Z,0.82
2023-02-15T07:51:15.448Z,0.89
2023-02-15T07:53:43.779Z,1.06
2023-02-15T07:56:14.184Z,1.17
2023-02-15T07:58:51.827Z,1.40
2023-02-15T08:01:36.164Z,1.60
2023-02-15T08:04:07.277Z,1.83
2023-02-15T08:06:36.976Z,2.08
2023-02-15T08:09:08.543Z,2.05
2023-02-15T08:11:38.539Z,2.33
2023-02-15T08:14:16.010Z,2.67
2023-02-15T08:16:45.583Z,2.62
2023-02-15T08:19:19.207Z,3.20
2023-02-15T08:21:53.528Z,3.25
2023-02-15T08:24:24.170Z,3.40
2023-02-15T08:26:52.959Z,4.05
2023-02-15T08:29:26.941Z,4.54
2023-02-15T08:32:03.076Z,5.00
2023-02-15T08:34:36.133Z,4.47
2023-02-15T08:37:04.522Z,5.15
2023-02-15T08:39:33.089Z,5.32
2023-02-15T08:42:01.652Z,6.04
2023-02-15T08:44:30.219Z,6.24
2023-02-15T08:47:03.933Z,6.69
2023-02-15T08:49:32.635Z,6.25
2023-02-15T08:52:01.642Z,6.92
2023-02-15T08:54:29.949Z,7.16
2023-02-15T08:56:58.098Z,7.28
2023-02-15T08:59:28.011Z,7.83
2023-02-15T09:02:00.427Z,7.94
2023-02-15T09:04:28.891Z,8.33
2023-02-15T09:06:56.969Z,8.57
2023-02-15T09:09:25.076Z,8.78
2023-02-15T09:11:58.720Z,8.51
2023-02-15T09:14:28.563Z,9.30
2023-02-15T09:16:57.059Z,9.77
2023-02-15T09:19:25.825Z,9.91
2023-02-15T09:21:54.413Z,10.10
2023-02-15T09:24:23.787Z,10.04
2023-02-15T09:26:52.012Z,10.26
2023-02-15T09:29:20.387Z,10.09
2023-02-15T09:31:51.357Z,9.81
2023-02-15T09:34:22.566Z,10.62
2023-02-15T09:36:51.974Z,9.84
2023-02-15T09:39:28.997Z,10.41
2023-02-15T09:42:39.800Z,11.01
2023-02-15T09:45:39.836Z,10.53
2023-02-15T09:48:19.526Z,10.34
2023-02-15T09:50:53.753Z,10.88
2023-02-15T09:53:31.080Z,11.56
2023-02-15T09:56:54.713Z,11.28
2023-02-15T09:59:36.068Z,10.65
2023-02-15T10:02:45.325Z,10.48
2023-02-15T10:05:43.854Z,10.43
2023-02-15T10:08:43.774Z,11.19
2023-02-15T10:11:40.846Z,11.22
2023-02-15T10:14:43.357Z,10.88
2023-02-15T10:17:44.619Z,11.02
2023-02-15T10:20:40.409Z,11.87
2023-02-15T10:23:27.341Z,12.22
2023-02-15T10:25:57.954Z,12.71
2023-02-15T10:28:51.017Z,12.86
2023-02-15T10:31:49.218Z,12.53
2023-02-15T10:34:32.763Z,11.88
2023-02-15T10:37:38.525Z,12.45
2023-02-15T10:40:22.154Z,11.33
2023-02-15T10:43:15.319Z,12.32
2023-02-15T10:46:04.255Z,11.90
2023-02-15T10:48:52.447Z,11.18
2023-02-15T10:51:51.330Z,11.29
2023-02-15T10:54:44.380Z,11.23
2023-02-15T10:57:43.700Z,11.90
2023-02-15T11:00:24.889Z,11.56
2023-02-15T11:03:12.681Z,11.90
2023-02-15T11:05:59.043Z,11.76
2023-02-15T11:08:32.471Z,11.96
2023-02-15T11:11:06.548Z,10.44
2023-02-15T11:13:40.928Z,10.40
2023-02-15T11:16:27.036Z,11.48
2023-02-15T11:19:06.744Z,10.80
2023-02-15T11:21:59.499Z,10.83
2023-02-15T11:24:31.644Z,10.38
2023-02-15T11:27:17.627Z,10.62
2023-02-15T11:29:51.972Z,10.45
2023-02-15T11:32:24.912Z,10.76
2023-02-15T11:35:02.707Z,10.56
2023-02-15T11:37:52.796Z,11.00
2023-02-15T11:40:21.510Z,10.79
2023-02-15T11:42:52.525Z,11.61
2023-02-15T11:45:28.232Z,11.04
2023-02-15T11:47:57.872Z,11.12
2023-02-15T11:50:29.825Z,11.12
2023-02-15T11:53:01.390Z,9.80
2023-02-15T11:55:30.399Z,9.75
2023-02-15T11:58:17.609Z,10.53
2023-02-15T12:00:50.066Z,10.73
2023-02-15T12:03:36.684Z,10.30
2023-02-15T12:06:06.842Z,9.80
2023-02-15T12:08:51.674Z,9.45
2023-02-15T12:11:27.013Z,9.40
2023-02-15T12:14:00.999Z,9.58
2023-02-15T12:16:33.258Z,8.75
2023-02-15T12:19:03.438Z,9.46
2023-02-15T12:21:35.382Z,9.36
2023-02-15T12:24:35.606Z,9.58
2023-02-15T12:27:07.678Z,9.66
2023-02-15T12:29:52.919Z,9.49
2023-02-15T12:32:29.978Z,9.49
2023-02-15T12:35:35.018Z,9.33
2023-02-15T12:38:24.113Z,9.13
2023-02-15T12:41:19.029Z,8.74
2023-02-15T12:43:47.255Z,9.00
2023-02-15T12:46:23.382Z,9.10
2023-02-15T12:49:20.989Z,9.10
2023-02-15T12:51:51.103Z,8.82
2023-02-15T12:54:41.438Z,8.75
2023-02-15T12:57:15.946Z,8.93
2023-02-15T12:59:55.494Z,8.81
2023-02-15T13:02:58.336Z,8.61
2023-02-15T13:05:40.749Z,8.66
2023-02-15T13:08:16.532Z,8.39
2023-02-15T13:10:56.247Z,8.45
2023-02-15T13:13:30.541Z,8.64
2023-02-15T13:16:14.461Z,8.40
2023-02-15T13:18:48.123Z,8.49
2023-02-15T13:21:27.746Z,8.64
2023-02-15T13:24:23.582Z,8.59
2023-02-15T13:27:03.431Z,8.76
2023-02-15T13:29:45.076Z,8.84
2023-02-15T13:32:28.631Z,8.67
2023-02-15T13:35:02.111Z,8.69
2023-02-15T13:37:51.966Z,8.67
2023-02-15T13:40:46.613Z,8.63
2023-02-15T13:43:45.448Z,8.64
2023-02-15T13:46:37.889Z,8.72
2023-02-15T13:49:12.313Z,8.54
2023-02-15T13:51:46.296Z,8.54
2023-02-15T13:54:17.115Z,8.63
2023-02-15T13:57:31.604Z,8.59
2023-02-15T14:00:12.054Z,8.58
2023-02-15T14:02:54.537Z,8.57
2023-02-15T14:05:41.400Z,8.65
2023-02-15T14:08:27.916Z,8.57
2023-02-15T14:10:59.401Z,8.64
2023-02-15T14:13:32.316Z,8.61
2023-02-15T14:16:35.955Z,8.50
2023-02-15T14:19:17.507Z,8.56
2023-02-15T14:22:09.410Z,8.53
2023-02-15T14:24:45.495Z,8.59
2023-02-15T14:27:23.491Z,8.56
2023-02-15T14:29:58.804Z,8.58
2023-02-15T14:32:36.764Z,8.52
2023-02-15T14:35:07.111Z,8.52
2023-02-15T14:37:54.055Z,8.52
2023-02-15T14:40:50.037Z,8.42
2023-02-15T14:43:31.212Z,8.41
2023-02-15T14:46:20.106Z,8.37
2023-02-15T14:48:54.793Z,8.28
2023-02-15T14:51:41.218Z,8.23
2023-02-15T14:54:11.285Z,8.21
2023-02-15T14:56:42.319Z,8.18
2023-02-15T14:59:20.876Z,8.15
2023-02-15T15:01:57.666Z,8.09
2023-02-15T15:04:40.929Z,8.03
2023-02-15T15:07:22.511Z,7.99
2023-02-15T15:10:21.926Z,7.94
2023-02-15T15:12:54.674Z,7.87
2023-02-15T15:15:29.146Z,7.86
2023-02-15T15:18:03.213Z,7.82
2023-02-15T15:20:51.246Z,7.74
2023-02-15T15:23:19.894Z,7.69
2023-02-15T15:25:57.429Z,7.60
2023-02-15T15:28:34.628Z,7.49
2023-02-15T15:31:19.125Z,7.43
2023-02-15T15:34:02.642Z,7.41
2023-02-15T15:36:55.381Z,7.38
2023-02-15T15:39:49.460Z,7.27
2023-02-15T15:42:39.142Z,7.21
2023-02-15T15:45:27.607Z,7.10
2023-02-15T15:48:27.616Z,7.01
2023-02-15T15:51:00.710Z,6.88
2023-02-15T15:53:32.934Z,6.78
2023-02-15T15:56:06.807Z,6.73
2023-02-15T15:58:36.039Z,6.51
2023-02-15T16:01:15.730Z,6.35
2023-02-15T16:03:53.683Z,6.20
2023-02-15T16:06:39.224Z,6.22
2023-02-15T16:09:19.995Z,6.12
2023-02-15T16:11:52.820Z,5.88
2023-02-15T16:14:37.876Z,5.70
2023-02-15T16:17:16.601Z,5.43
2023-02-15T16:19:45.528Z,5.38
2023-02-15T16:22:22.106Z,5.27
2023-02-15T16:25:06.337Z,5.18
2023-02-15T16:27:35.873Z,4.87
2023-02-15T16:30:22.907Z,4.87
2023-02-15T16:33:03.959Z,5.05
2023-02-15T16:35:33.368Z,5.09
2023-02-15T16:38:02.380Z,5.10
2023-02-15T16:40:41.839Z,4.80
2023-02-15T16:43:19.425Z,4.44
2023-02-15T16:45:48.537Z,4.38
2023-02-15T16:48:24.678Z,4.30
2023-02-15T16:50:58.813Z,4.44
2023-02-15T16:53:29.489Z,4.34
2023-02-15T16:56:06.515Z,4.29
2023-02-15T16:58:40.350Z,4.35
2023-02-15T17:01:11.828Z,4.29
2023-02-15T17:03:42.906Z,4.45
2023-02-15T17:06:27.449Z,4.78
2023-02-15T17:09:10.539Z,4.79
2023-02-15T17:11:44.976Z,4.86
2023-02-15T17:14:21.724Z,4.66
2023-02-15T17:16:55.715Z,4.58
2023-02-15T17:19:33.544Z,4.61
2023-02-15T17:22:07.581Z,4.71
2023-02-15T17:24:41.556Z,4.76
2023-02-15T17:27:19.448Z,4.64
2023-02-15T17:29:56.870Z,4.72
2023-02-15T17:32:28.927Z,4.70
2023-02-15T17:35:04.055Z,4.67
2023-02-15T17:37:45.846Z,4.52
2023-02-15T17:40:30.033Z,4.51
2023-02-15T17:42:59.084Z,4.28
2023-02-15T17:45:45.038Z,4.24
2023-02-15T17:48:23.055Z,4.24
2023-02-15T17:50:52.124Z,4.03
2023-02-15T17:53:20.800Z,3.96
2023-02-15T17:55:50.028Z,3.99
2023-02-15T17:58:20.704Z,4.00
2023-02-15T18:01:12.084Z,3.85
2023-02-15T18:04:06.199Z,3.67
2023-02-15T18:06:56.421Z,3.76
2023-02-15T18:09:44.694Z,3.67
2023-02-15T18:12:25.427Z,3.49
2023-02-15T18:14:57.705Z,3.41
2023-02-15T18:17:33.031Z,3.26
2023-02-15T18:20:15.817Z,3.43
2023-02-15T18:22:46.695Z,3.52
2023-02-15T18:25:19.793Z,3.71
2023-02-15T18:27:48.575Z,3.30
2023-02-15T18:30:20.376Z,2.74
2023-02-15T18:32:54.407Z,2.66
2023-02-15T18:35:34.130Z,2.44
2023-02-15T18:38:11.928Z,2.48
2023-02-15T18:40:40.880Z,2.38
2023-02-15T18:43:13.448Z,2.47
2023-02-15T18:45:42.402Z,2.59
2023-02-15T18:48:10.978Z,2.38
2023-02-15T18:50:39.736Z,2.08
2023-02-15T18:53:17.526Z,2.25
2023-02-15T18:55:46.379Z,2.28
2023-02-15T18:58:21.863Z,2.36
2023-02-15T19:00:53.047Z,2.29
2023-02-15T19:03:22.192Z,2.20
2023-02-15T19:05:51.218Z,2.18
2023-02-15T19:08:24.677Z,2.13
2023-02-15T19:10:53.995Z,2.04
2023-02-15T19:13:22.450Z,1.65
2023-02-15T19:15:55.959Z,1.43
2023-02-15T19:18:26.410Z,1.61
2023-02-15T19:20:54.906Z,1.62
2023-02-15T19:23:24.724Z,1.60
2023-02-15T19:25:54.170Z,1.47
2023-02-15T19:28:32.544Z,1.12
2023-02-15T19:31:01.478Z,0.89
2023-02-15T19:33:32.201Z,0.86
2023-02-15T19:36:01.335Z,1.14
2023-02-15T19:38:35.176Z,1.13
2023-02-15T19:41:31.586Z,1.30
2023-02-15T19:44:00.737Z,1.55
2023-02-15T19:46:32.394Z,1.43
2023-02-15T19:49:02.335Z,1.65
2023-02-15T19:51:31.557Z,1.44
2023-02-15T19:54:00.358Z,1.45
2023-02-15T19:56:29.237Z,1.43
2023-02-15T19:58:59.300Z,1.53
2023-02-15T20:01:28.645Z,1.61
2023-02-15T20:03:58.260Z,1.47
2023-02-15T20:06:27.685Z,1.45
2023-02-15T20:08:56.351Z,1.28
2023-02-15T20:11:25.320Z,1.26
2023-02-15T20:13:55.143Z,1.32
2023-02-15T20:16:25.865Z,1.28
2023-02-15T20:18:55.049Z,1.21
2023-02-15T20:21:24.734Z,1.19
2023-02-15T20:23:53.213Z,1.10
2023-02-15T20:26:25.599Z,1.15
2023-02-15T20:28:54.207Z,1.18
2023-02-15T20:31:25.692Z,1.14
2023-02-15T20:33:54.265Z,1.15
2023-02-15T20:36:24.791Z,1.12
2023-02-15T20:38:53.267Z,1.11
2023-02-15T20:41:38.090Z,1.03
2023-02-15T20:44:21.679Z,1.06
2023-02-15T20:46:52.539Z,0.99
2023-02-15T20:49:26.472Z,1.12
2023-02-15T20:51:58.605Z,1.12
2023-02-15T20:54:31.116Z,1.13
2023-02-15T20:57:02.942Z,1.05
2023-02-15T20:59:32.925Z,0.99
2023-02-15T21:02:15.145Z,0.88
2023-02-15T21:04:43.887Z,0.87
2023-02-15T21:07:17.188Z,0.75
2023-02-15T21:09:46.711Z,0.71
2023-02-15T21:12:17.897Z,0.64
2023-02-15T21:14:47.186Z,0.55
2023-02-15T21:17:16.889Z,0.69
2023-02-15T21:19:46.263Z,0.53
2023-02-15T21:22:19.840Z,0.38
2023-02-15T21:24:52.207Z,0.29
2023-02-15T21:27:21.801Z,0.22
2023-02-15T21:29:50.846Z,0.30
2023-02-15T21:32:22.078Z,0.29
2023-02-15T21:34:51.379Z,0.41
2023-02-15T21:37:33.827Z,0.39
2023-02-15T21:40:07.389Z,0.38
2023-02-15T21:42:54.615Z,0.32
2023-02-15T21:45:42.344Z,0.28
2023-02-15T21:48:10.846Z,0.32
2023-02-15T21:50:59.723Z,0.37
2023-02-15T21:53:33.985Z,0.39
2023-02-15T21:56:05.165Z,0.09
2023-02-15T21:58:36.734Z,-0.02
2023-02-15T22:01:06.260Z,-0.03
2023-02-15T22:03:37.893Z,-0.21
2023-02-15T22:06:06.249Z,-0.36
2023-02-15T22:08:35.083Z,-0.41
2023-02-15T22:11:03.603Z,-0.39
2023-02-15T22:13:34.044Z,-0.18
2023-02-15T22:16:03.584Z,-0.07
2023-02-15T22:18:34.498Z,-0.08
2023-02-15T22:21:04.453Z,-0.06
2023-02-15T22:23:32.989Z,-0.20
2023-02-15T22:26:33.742Z,-0.12
2023-02-15T22:29:02.320Z,-0.13
2023-02-15T22:31:30.610Z,-0.33
2023-02-15T22:33:58.950Z,-0.27
2023-02-15T22:36:30.262Z,-0.16
2023-02-15T22:38:58.750Z,-0.20
2023-02-15T22:41:29.893Z,-0.17
2023-02-15T22:43:58.520Z,-0.44
2023-02-15T22:46:26.874Z,-0.19
2023-02-15T22:48:55.390Z,-0.39
2023-02-15T22:51:25.332Z,-0.32
2023-02-15T22:53:53.915Z,-0.39
2023-02-15T22:56:27.538Z,-0.36
2023-02-15T22:59:02.029Z,-0.22
2023-02-15T23:01:32.419Z,-0.42
2023-02-15T23:04:03.473Z,-0.52
2023-02-15T23:06:32.687Z,-0.41
2023-02-15T23:09:01.501Z,-0.28
2023-02-15T23:11:29.606Z,-0.80
2023-02-15T23:13:57.673Z,-0.52
2023-02-15T23:16:26.265Z,-0.66
2023-02-15T23:18:55.248Z,-0.57
2023-02-15T23:21:31.951Z,-0.97
2023-02-15T23:24:22.555Z,-0.79
2023-02-15T23:26:51.170Z,-0.96
2023-02-15T23:29:22.317Z,-1.29
2023-02-15T23:31:53.864Z,-0.97
2023-02-15T23:34:27.654Z,-1.31
2023-02-15T23:36:56.450Z,-1.23
2023-02-15T23:39:45.871Z,-1.23
2023-02-15T23:42:25.171Z,-1.23
2023-02-15T23:44:54.023Z,-1.19
2023-02-15T23:47:44.102Z,-1.27
2023-02-15T23:50:21.643Z,-1.16
2023-02-15T23:52:51.015Z,-1.31
2023-02-15T23:55:20.331Z,-1.04
2023-02-15T23:57:49.667Z,-1.21
